Call, Texas
Current Conditions -  °F | °C
As of 5:15 PM on Saturday 25 Oct 2014 (Local Time) from KJAS Reporting Station
Clear Clear  
Wind Chill: 80°   Ceiling: Unl
Heat Index: 80°   Visibility: 10mi
Dew Point: 55°   Wind: 3mph
Humidity: 41%   Direction: 210°SSW
Pressure: 30.12"   Gusts: NA
Location:  30.61°N, 93.88°W
Report Text: KJAS 252215Z AUTO 21003KT 10SM CLR 27/13 A3012 RMK AO2 T02680126
Loading
Personal Weather Stations






























Interactive Weather Map
Tropical Storm Tracking
New forecast layout! Learn more

10-Day Weather Forecast

Advertisements
Track Severe Weather on mobile